Time;durP1;ratioP1;P1;durP2;ratioP2;P2;SDS_P1;SDS_P2;PMS_P1;PMS_P2;Temp;Humidity;BMP_temperature;BMP_pressure;BME280_temperature;BME280_humidity;BME280_pressure;Samples;Min_cycle;Max_cycle;Signal;HPM_P1;HPM_P2
2023/10/19 00:00:44;;;;;;;7.93;1.80;;;;;;;19.49;82.64;98807.34;10256053;28;97110;-76
2023/10/19 00:05:48;;;;;;;6.85;1.05;;;;;;;19.48;82.62;98814.50;10255761;28;96855;-75
2023/10/19 00:11:02;;;;;;;;;;;;;;;19.51;82.86;98816.84;10255271;28;97317;-76
2023/10/19 00:16:11;;;;;;;3.40;0.93;;;;;;;19.52;82.29;98807.88;10255144;28;97016;-76
2023/10/19 00:21:20;;;;;;;5.03;1.15;;;;;;;19.55;81.89;98812.06;10254093;28;97500;-75
2023/10/19 00:26:30;;;;;;;9.18;1.20;;;;;;;19.51;82.47;98787.50;10254983;28;96777;-76
2023/10/19 00:31:39;;;;;;;6.03;1.30;;;;;;;19.53;82.11;98790.88;10255058;28;97155;-76
2023/10/19 00:36:45;;;;;;;8.95;1.50;;;;;;;19.53;81.86;98760.69;10254382;28;96936;-76
2023/10/19 00:41:49;;;;;;;4.80;1.20;;;;;;;19.54;82.08;98741.03;10253947;28;96841;-76
2023/10/19 00:47:00;;;;;;;4.83;1.50;;;;;;;19.55;82.41;98745.34;10254215;28;96904;-76
2023/10/19 00:52:12;;;;;;;9.40;1.17;;;;;;;19.53;82.12;98723.34;10254148;28;97126;-76
2023/10/19 00:57:20;;;;;;;6.05;1.73;;;;;;;19.41;82.85;98672.03;10255042;28;97252;-77
2023/10/19 01:02:28;;;;;;;7.00;1.42;;;;;;;19.48;82.61;98666.91;10213212;28;97313;-77
2023/10/19 01:07:38;;;;;;;6.60;1.63;;;;;;;19.44;82.52;98661.03;10213480;28;96613;-77
2023/10/19 01:12:43;;;;;;;5.72;1.40;;;;;;;19.43;82.90;98682.53;10211699;28;96614;-77
2023/10/19 01:17:52;;;;;;;5.57;1.42;;;;;;;19.37;82.77;98699.16;10241217;28;96561;-77
2023/10/19 01:23:20;;;;;;;6.05;1.35;;;;;;;19.32;83.17;98717.44;10253115;28;96649;-77
2023/10/19 01:28:25;;;;;;;4.18;1.45;;;;;;;18.76;85.88;98771.84;10253452;28;96601;-77
2023/10/19 01:33:30;;;;;;;1.88;0.60;;;;;;;18.59;87.42;98686.50;10252405;28;97005;-78
2023/10/19 01:38:35;;;;;;;1.63;0.50;;;;;;;18.67;86.83;98708.75;10253458;28;97344;-77
2023/10/19 01:43:40;;;;;;;5.07;0.98;;;;;;;18.78;86.81;98699.72;10252552;28;96794;-76
2023/10/19 01:48:44;;;;;;;8.90;1.75;;;;;;;18.97;86.03;98671.09;10254371;28;97003;-77
2023/10/19 01:53:51;;;;;;;8.48;2.08;;;;;;;19.08;85.52;98702.03;10259631;28;97311;-77
2023/10/19 01:58:57;;;;;;;8.25;2.33;;;;;;;19.19;84.74;98702.66;10260759;28;97381;-77
2023/10/19 02:04:04;;;;;;;9.93;2.13;;;;;;;19.27;84.35;98684.06;10258352;28;96618;-77
2023/10/19 02:09:16;;;;;;;7.47;1.75;;;;;;;19.23;84.77;98664.00;10258842;28;97189;-77
2023/10/19 02:14:20;;;;;;;6.65;1.90;;;;;;;19.12;84.58;98653.59;10258906;28;96703;-77
2023/10/19 02:19:35;;;;;;;;;;;;;;;;;;;;;
2023/10/19 02:24:40;;;;;;;3.92;1.20;;;;;;;18.69;81.98;98676.63;10259913;28;96702;-78
2023/10/19 02:29:44;;;;;;;;;;;;;;;18.47;81.85;98677.88;10258871;28;97104;-77
2023/10/19 02:34:49;;;;;;;2.55;0.82;;;;;;;18.58;82.12;98636.88;10258961;28;97063;-76
2023/10/19 02:39:54;;;;;;;7.55;1.33;;;;;;;18.57;82.17;98619.22;10259106;28;96710;-76
2023/10/19 02:44:57;;;;;;;;;;;;;;;18.67;81.92;98631.50;10258923;28;96721;-78
2023/10/19 02:50:10;;;;;;;3.08;0.80;;;;;;;18.56;81.93;98615.72;10258470;28;97113;-77
2023/10/19 02:55:16;;;;;;;2.65;0.98;;;;;;;18.47;81.98;98600.63;10256602;28;97200;-77
2023/10/19 03:00:20;;;;;;;6.63;1.13;;;;;;;18.36;82.03;98587.50;10257321;28;97297;-77
2023/10/19 03:05:25;;;;;;;4.07;1.20;;;;;;;18.36;82.52;98552.88;10257445;28;96702;-77
2023/10/19 03:10:41;;;;;;;4.80;1.02;;;;;;;18.32;82.49;98545.31;10257153;28;96730;-77
2023/10/19 03:15:50;;;;;;;3.50;1.00;;;;;;;18.24;82.59;98538.09;10256620;28;96788;-76
2023/10/19 03:20:53;;;;;;;3.70;1.10;;;;;;;18.17;83.52;98524.56;10256994;28;97221;-77
2023/10/19 03:31:17;;;;;;;3.42;0.80;;;;;;;18.09;84.03;98496.97;10257240;28;97083;-77
2023/10/19 03:36:22;;;;;;;4.97;1.25;;;;;;;18.16;84.21;98512.22;10256576;28;97116;-77
2023/10/19 03:41:28;;;;;;;3.88;1.15;;;;;;;18.04;84.64;98499.25;10256358;28;97094;-77
2023/10/19 03:46:31;;;;;;;2.85;0.80;;;;;;;18.12;84.87;98556.09;10254827;28;97198;-77
2023/10/19 03:51:57;;;;;;;5.25;0.90;;;;;;;18.09;84.31;98542.25;10255907;28;97061;-77
2023/10/19 03:57:06;;;;;;;1.67;0.68;;;;;;;18.08;84.84;98516.63;10255683;28;96844;-77
2023/10/19 04:02:13;;;;;;;1.45;0.63;;;;;;;18.18;84.54;98499.59;10255557;28;96729;-77
2023/10/19 04:07:20;;;;;;;2.55;0.65;;;;;;;18.23;84.64;98464.50;10255443;28;97201;-78
2023/10/19 04:12:26;;;;;;;4.70;1.00;;;;;;;18.02;85.34;98427.53;10255435;28;97256;-78
2023/10/19 04:17:29;;;;;;;3.63;1.10;;;;;;;18.16;85.08;98421.69;10256114;28;97675;-77
2023/10/19 04:22:33;;;;;;;4.25;1.00;;;;;;;18.21;84.92;98404.44;10255875;28;97756;-77
2023/10/19 04:27:37;;;;;;;1.47;0.60;;;;;;;18.25;84.69;98395.16;10255242;28;96614;-76
2023/10/19 04:32:43;;;;;;;2.08;0.80;;;;;;;18.02;85.94;98386.81;10265003;22;97140;-76
2023/10/19 04:38:20;;;;;;;1.80;0.80;;;;;;;17.93;85.49;98382.41;10292104;28;96906;-76
2023/10/19 04:43:46;;;;;;;2.10;0.60;;;;;;;17.92;86.30;98386.88;10259493;28;97014;-76
2023/10/19 04:49:03;;;;;;;1.35;0.90;;;;;;;18.02;85.67;98382.31;10295224;28;97854;-76
2023/10/19 04:54:17;;;;;;;1.60;0.50;;;;;;;17.95;85.87;98388.41;10294768;28;97250;-76
2023/10/19 04:59:23;;;;;;;5.45;1.02;;;;;;;17.98;85.74;98382.78;10327545;28;97370;-76
2023/10/19 05:04:33;;;;;;;3.42;1.20;;;;;;;17.95;86.28;98348.47;10325526;28;98319;-76
2023/10/19 05:09:43;;;;;;;2.17;0.70;;;;;;;18.08;85.81;98328.47;10294219;28;96767;-76
2023/10/19 05:15:05;;;;;;;3.30;0.80;;;;;;;18.07;85.30;98302.81;10295299;28;96642;-76
2023/10/19 05:20:13;;;;;;;5.30;0.85;;;;;;;18.23;85.34;98303.94;10293800;28;96637;-77
2023/10/19 05:25:16;;;;;;;1.85;0.50;;;;;;;18.18;85.18;98296.41;10293469;28;97212;-76
2023/10/19 05:30:25;;;;;;;2.30;0.77;;;;;;;18.30;84.58;98289.03;10293729;28;96766;-77
2023/10/19 05:35:34;;;;;;;2.38;0.68;;;;;;;18.24;85.12;98285.16;10293211;28;96899;-76
2023/10/19 05:40:42;;;;;;;3.47;0.70;;;;;;;18.24;85.20;98258.53;10294115;28;97374;-76
2023/10/19 05:45:52;;;;;;;3.17;1.00;;;;;;;18.31;84.67;98250.75;10293536;28;96576;-76
2023/10/19 05:50:59;;;;;;;3.75;1.20;;;;;;;18.40;84.46;98247.13;10331315;28;96946;-76
2023/10/19 05:56:26;;;;;;;1.10;0.50;;;;;;;18.36;84.66;98235.13;10334126;28;96803;-76
2023/10/19 06:01:31;;;;;;;3.05;0.70;;;;;;;18.35;84.69;98197.00;10334110;28;97505;-76
2023/10/19 06:06:36;;;;;;;3.85;1.05;;;;;;;18.32;85.38;98169.84;10299556;28;97481;-76
2023/10/19 06:11:42;;;;;;;1.58;0.60;;;;;;;18.42;84.95;98175.91;10257023;28;97062;-76
2023/10/19 06:16:47;;;;;;;5.78;1.20;;;;;;;18.39;84.64;98168.22;10255946;28;96589;-76
2023/10/19 06:21:51;;;;;;;2.47;0.80;;;;;;;18.44;84.57;98157.91;10303743;28;97161;-76
2023/10/19 06:26:55;;;;;;;3.07;1.10;;;;;;;18.52;84.53;98158.00;10333455;28;97268;-76
2023/10/19 06:32:00;;;;;;;2.00;0.83;;;;;;;18.55;84.60;98134.53;10295717;28;96725;-76
2023/10/19 06:37:03;;;;;;;1.75;0.50;;;;;;;18.57;84.33;98110.41;10294465;28;96793;-76
2023/10/19 06:42:09;;;;;;;4.50;1.13;;;;;;;18.52;84.36;98102.91;10299396;28;96644;-76
2023/10/19 06:47:14;;;;;;;3.58;0.80;;;;;;;18.61;82.97;98085.13;10299055;28;96935;-76
2023/10/19 06:52:17;;;;;;;2.83;0.70;;;;;;;18.61;82.20;98047.81;10297973;28;96722;-77
2023/10/19 06:57:22;;;;;;;7.32;1.05;;;;;;;18.63;81.82;98035.97;10299603;28;97256;-77
2023/10/19 07:02:29;;;;;;;5.22;0.95;;;;;;;18.58;81.69;98029.47;10298474;28;97060;-77
2023/10/19 07:07:33;;;;;;;5.70;0.95;;;;;;;18.52;82.98;97990.19;10298183;28;96664;-77
2023/10/19 07:12:37;;;;;;;3.30;0.80;;;;;;;18.51;82.71;97977.84;10306622;28;97189;-77
2023/10/19 07:17:43;;;;;;;4.22;0.82;;;;;;;18.53;82.42;97995.34;10312221;28;97031;-77
2023/10/19 07:22:46;;;;;;;2.20;0.70;;;;;;;18.47;81.92;97973.88;10257280;28;96556;-77
2023/10/19 07:27:50;;;;;;;2.90;0.90;;;;;;;18.44;82.40;97968.84;10278380;28;97130;-77
2023/10/19 07:32:58;;;;;;;1.33;0.50;;;;;;;18.31;83.37;97960.50;10297600;28;96936;-77
2023/10/19 07:38:07;;;;;;;2.72;0.40;;;;;;;18.32;82.28;97972.81;10296879;28;96794;-77
2023/10/19 07:43:10;;;;;;;1.08;0.50;;;;;;;18.17;84.22;97981.47;10296827;28;97043;-78
2023/10/19 07:48:16;;;;;;;3.38;1.10;;;;;;;18.10;85.88;97998.25;10297763;28;96936;-77
2023/10/19 07:53:25;;;;;;;0.75;0.28;;;;;;;18.01;87.11;98018.69;10296335;28;96879;-78
2023/10/19 07:58:29;;;;;;;1.80;0.32;;;;;;;17.97;88.08;98021.81;10296180;28;96800;-78
2023/10/19 08:03:35;;;;;;;0.52;0.35;;;;;;;18.03;88.70;98047.78;10305086;28;96919;-78
2023/10/19 08:08:38;;;;;;;;;;;;;;;18.07;88.61;98059.78;10337726;28;97241;-77
2023/10/19 08:13:41;;;;;;;0.30;0.20;;;;;;;18.02;88.55;98067.44;10329680;28;96782;-77
2023/10/19 08:18:50;;;;;;;0.00;0.00;;;;;;;18.05;87.32;98064.44;10296020;28;96701;-78
2023/10/19 08:23:58;;;;;;;0.15;0.05;;;;;;;18.04;87.30;98047.63;10296146;28;96574;-78
2023/10/19 08:29:07;;;;;;;0.17;0.17;;;;;;;18.12;86.68;98025.53;10295159;28;96751;-77
2023/10/19 08:34:17;;;;;;;0.10;0.10;;;;;;;18.08;85.64;98011.72;10294922;28;97183;-77
2023/10/19 08:39:20;;;;;;;0.00;0.00;;;;;;;18.18;84.60;98027.53;10296781;28;97128;-77
2023/10/19 08:44:25;;;;;;;0.25;0.00;;;;;;;18.10;83.97;98052.31;10294490;28;96775;-77
2023/10/19 08:49:34;;;;;;;0.30;0.15;;;;;;;18.04;83.16;98050.28;10295113;28;96677;-77
2023/10/19 08:54:37;;;;;;;0.20;0.10;;;;;;;18.08;82.88;98005.56;10294388;28;96651;-77
2023/10/19 08:59:41;;;;;;;0.00;0.00;;;;;;;18.15;81.87;98023.38;10293890;28;96582;-77
2023/10/19 09:04:48;;;;;;;0.10;0.10;;;;;;;18.18;81.89;98022.22;10294202;28;96805;-77
2023/10/19 09:09:53;;;;;;;0.63;0.20;;;;;;;18.22;81.25;97972.97;10293073;28;97139;-77
2023/10/19 09:14:58;;;;;;;0.22;0.10;;;;;;;18.55;81.23;97945.41;10288595;28;97185;-77
2023/10/19 09:20:09;;;;;;;0.52;0.20;;;;;;;18.75;80.48;97900.63;10271759;28;96735;-77
2023/10/19 09:25:14;;;;;;;0.20;0.10;;;;;;;18.85;80.26;97886.09;10293513;28;97018;-77
2023/10/19 09:30:22;;;;;;;0.03;0.00;;;;;;;18.73;81.84;97894.63;10295221;28;97582;-76
2023/10/19 09:35:31;;;;;;;0.10;0.10;;;;;;;18.63;80.56;97942.75;10293269;28;96829;-77
2023/10/19 09:40:34;;;;;;;0.93;0.20;;;;;;;18.53;82.02;97968.72;10293416;28;97303;-77
2023/10/19 09:45:42;;;;;;;0.43;0.10;;;;;;;18.36;81.17;97975.00;10292765;28;97203;-78
2023/10/19 09:50:54;;;;;;;0.57;0.17;;;;;;;18.39;81.78;97941.88;10293499;28;96648;-77
2023/10/19 09:55:59;;;;;;;0.20;0.20;;;;;;;18.38;82.00;97909.09;10293070;28;97201;-76
2023/10/19 10:01:03;;;;;;;0.75;0.20;;;;;;;18.39;82.05;97883.28;10293693;28;96690;-76
2023/10/19 10:06:08;;;;;;;1.08;0.22;;;;;;;18.42;81.96;97930.91;10332152;28;97064;-77
2023/10/19 10:11:17;;;;;;;0.25;0.10;;;;;;;18.33;80.33;97961.19;10320798;28;96621;-77
2023/10/19 10:16:23;;;;;;;0.13;0.10;;;;;;;18.31;80.51;97963.19;10267038;28;96901;-77
2023/10/19 10:21:33;;;;;;;0.10;0.10;;;;;;;18.34;80.58;97880.28;10290424;28;97012;-77
2023/10/19 10:27:02;;;;;;;0.10;0.10;;;;;;;18.25;82.25;97702.94;10299306;28;96790;-77
2023/10/19 10:32:09;;;;;;;0.30;0.15;;;;;;;18.92;80.93;97708.53;10299495;28;96755;-76
2023/10/19 10:37:15;;;;;;;1.52;0.60;;;;;;;19.55;79.58;97755.50;10298626;28;97170;-76
2023/10/19 10:42:20;;;;;;;1.48;0.40;;;;;;;20.39;77.91;97756.97;10298876;28;97211;-77
2023/10/19 10:47:24;;;;;;;0.50;0.22;;;;;;;20.51;76.97;97770.72;10298657;28;96669;-77
2023/10/19 10:52:31;;;;;;;0.35;0.30;;;;;;;20.14;78.07;97790.25;10299104;28;96857;-77
2023/10/19 10:57:36;;;;;;;1.38;0.47;;;;;;;19.91;78.69;97781.41;10339664;28;96968;-77
2023/10/19 11:02:42;;;;;;;1.02;0.30;;;;;;;19.55;78.90;97759.00;10339217;28;96974;-76
2023/10/19 11:08:06;;;;;;;0.52;0.22;;;;;;;19.73;78.93;97756.06;10337785;28;96886;-76
2023/10/19 11:13:10;;;;;;;0.35;0.22;;;;;;;19.52;79.42;97774.53;10329601;28;96858;-77
2023/10/19 11:18:30;;;;;;;0.68;0.28;;;;;;;19.30;79.30;97798.28;10321435;28;97043;-76
2023/10/19 11:23:43;;;;;;;0.50;0.17;;;;;;;18.85;79.44;97811.47;10296817;28;96658;-77
2023/10/19 11:28:50;;;;;;;0.32;0.20;;;;;;;18.68;80.32;97857.81;10297440;28;96712;-77
2023/10/19 11:33:57;;;;;;;0.20;0.15;;;;;;;18.72;80.60;97875.16;10296818;28;96658;-77
2023/10/19 11:39:12;;;;;;;0.10;0.10;;;;;;;18.63;80.37;97852.16;10297456;28;98208;-77
2023/10/19 11:44:15;;;;;;;0.30;0.20;;;;;;;18.75;80.31;97852.66;10297641;28;97011;-77
2023/10/19 11:49:22;;;;;;;0.10;0.10;;;;;;;18.76;80.24;97750.41;10297092;28;97567;-77
2023/10/19 11:54:31;;;;;;;0.13;0.03;;;;;;;18.78;80.11;97769.72;10296594;28;96652;-78
2023/10/19 11:59:34;;;;;;;0.00;0.00;;;;;;;18.72;80.77;97743.75;10296845;28;97313;-77
2023/10/19 12:04:37;;;;;;;0.10;0.10;;;;;;;18.60;81.02;97753.13;10332422;28;97309;-77
2023/10/19 12:09:42;;;;;;;0.20;0.15;;;;;;;18.59;80.89;97780.78;10290553;28;97143;-77
2023/10/19 12:14:49;;;;;;;0.10;0.10;;;;;;;18.57;80.79;97751.66;10260119;28;96857;-77
2023/10/19 12:19:57;;;;;;;0.32;0.10;;;;;;;18.47;81.28;97742.19;10298580;28;97424;-77
2023/10/19 12:25:05;;;;;;;0.73;0.13;;;;;;;18.53;81.25;97704.19;10295716;28;96562;-77
2023/10/19 12:30:19;;;;;;;0.30;0.10;;;;;;;18.49;81.88;97733.00;10295556;28;96524;-77
2023/10/19 12:35:42;;;;;;;0.03;0.03;;;;;;;18.41;83.20;97777.44;10294187;28;96670;-77
2023/10/19 12:40:50;;;;;;;0.10;0.05;;;;;;;17.96;86.18;97770.84;10295491;28;96638;-78
2023/10/19 12:45:55;;;;;;;0.30;0.10;;;;;;;17.97;86.33;97793.78;10295028;28;97238;-78
2023/10/19 12:51:01;;;;;;;1.35;0.32;;;;;;;17.93;86.56;97824.38;10295330;28;97375;-77
2023/10/19 12:56:12;;;;;;;1.38;0.40;;;;;;;17.90;86.16;97821.25;10334914;28;97646;-77
2023/10/19 13:01:18;;;;;;;1.65;0.38;;;;;;;17.86;85.58;97841.19;10335704;28;97371;-77
2023/10/19 13:06:23;;;;;;;2.75;0.63;;;;;;;17.88;85.70;97848.00;10312235;28;97045;-77
2023/10/19 13:11:32;;;;;;;1.75;0.50;;;;;;;18.01;84.63;97807.59;10294205;28;97384;-77
2023/10/19 13:16:36;;;;;;;2.85;1.13;;;;;;;17.94;84.03;97794.13;10294053;28;96759;-77
2023/10/19 13:21:42;;;;;;;3.17;0.80;;;;;;;18.06;83.33;97823.91;10293919;28;96966;-77
2023/10/19 13:26:46;;;;;;;2.47;0.40;;;;;;;18.19;83.16;97811.75;10305876;28;96903;-76
2023/10/19 13:31:51;;;;;;;3.50;0.77;;;;;;;18.24;82.60;97818.41;10334615;28;96637;-76
2023/10/19 13:36:55;;;;;;;;;;;;;;;18.15;82.10;97817.56;10334548;28;97126;-76
2023/10/19 13:42:00;;;;;;;1.50;0.52;;;;;;;18.36;82.04;97798.41;10334968;28;97026;-76
2023/10/19 13:47:04;;;;;;;2.22;0.57;;;;;;;18.54;81.19;97804.44;10329972;28;97448;-76
2023/10/19 13:52:08;;;;;;;1.02;0.70;;;;;;;18.61;81.17;97816.88;10301036;28;96730;-76
2023/10/19 13:57:13;;;;;;;1.87;0.63;;;;;;;18.92;80.31;97812.47;10300726;28;97268;-76
2023/10/19 14:02:16;;;;;;;;;;;;;;;19.11;79.40;97800.56;10323244;28;97117;-76
2023/10/19 14:07:19;;;;;;;1.55;0.93;;;;;;;19.35;78.95;97792.44;10341309;28;97229;-77
2023/10/19 14:12:24;;;;;;;2.28;0.77;;;;;;;19.41;78.37;97797.09;10321425;28;96622;-76
2023/10/19 14:17:27;;;;;;;;;;;;;;;19.42;77.14;97792.63;10309696;28;96634;-76
2023/10/19 14:22:34;;;;;;;2.05;0.85;;;;;;;19.24;77.45;97774.16;10302126;28;97145;-76
2023/10/19 14:27:40;;;;;;;5.70;1.02;;;;;;;19.19;77.81;97779.19;10300216;28;97583;-76
2023/10/19 14:32:45;;;;;;;7.85;1.55;;;;;;;19.07;77.67;97780.59;10298981;28;96864;-76
2023/10/19 14:37:54;;;;;;;3.80;1.02;;;;;;;18.94;77.46;97775.81;10300504;28;96711;-76
2023/10/19 14:43:01;;;;;;;8.98;1.50;;;;;;;18.84;76.41;97775.19;10299351;28;97355;-76
2023/10/19 14:48:10;;;;;;;5.82;1.73;;;;;;;18.88;77.09;97779.19;10299056;28;96632;-76
2023/10/19 14:53:13;;;;;;;4.60;1.60;;;;;;;19.18;76.33;97775.69;10321251;28;97296;-76
2023/10/19 14:58:19;;;;;;;5.13;1.58;;;;;;;20.34;73.79;97780.72;10328561;28;97301;-76
2023/10/19 15:03:23;;;;;;;10.23;2.40;;;;;;;20.63;70.91;97779.97;10298404;28;96910;-77
2023/10/19 15:08:31;;;;;;;6.63;2.25;;;;;;;20.25;70.79;97780.97;10298035;28;96847;-77
2023/10/19 15:13:36;;;;;;;6.95;2.08;;;;;;;19.74;69.59;97792.38;10257210;28;96892;-77
2023/10/19 15:18:39;;;;;;;8.43;2.10;;;;;;;19.19;70.49;97804.03;10264518;28;96737;-76
2023/10/19 15:23:43;;;;;;;5.97;2.22;;;;;;;18.94;70.77;97788.28;10297447;28;96624;-76
2023/10/19 15:28:47;;;;;;;10.18;2.47;;;;;;;19.02;71.65;97812.28;10334325;28;96744;-76
2023/10/19 15:33:57;;;;;;;9.98;2.88;;;;;;;19.22;71.24;97821.50;10338212;28;96939;-76
2023/10/19 15:39:02;;;;;;;7.72;1.75;;;;;;;19.39;71.00;97815.09;10337914;28;96608;-76
2023/10/19 15:44:08;;;;;;;5.35;2.15;;;;;;;19.30;71.41;97810.81;10313630;28;96867;-76
2023/10/19 15:49:13;;;;;;;9.10;1.90;;;;;;;19.17;71.41;97813.19;10296075;28;96969;-76
2023/10/19 15:54:19;;;;;;;6.72;2.20;;;;;;;19.05;70.70;97827.91;10296205;28;97226;-76
2023/10/19 15:59:25;;;;;;;6.82;2.17;;;;;;;18.98;69.81;97816.28;10304521;28;96982;-76
2023/10/19 16:04:28;;;;;;;5.25;1.92;;;;;;;18.89;69.98;97814.63;10337666;28;96589;-76
2023/10/19 16:09:32;;;;;;;9.48;2.22;;;;;;;19.27;69.92;97808.47;10302361;28;96771;-76
2023/10/19 16:14:37;;;;;;;10.93;2.47;;;;;;;19.37;69.23;97819.78;10295346;28;97074;-76
2023/10/19 16:19:40;;;;;;;12.10;2.20;;;;;;;19.18;68.58;97820.22;10316743;28;97211;-76
2023/10/19 16:24:43;;;;;;;5.50;1.58;;;;;;;19.05;67.41;97817.25;10295621;28;96574;-76
2023/10/19 16:29:48;;;;;;;4.40;1.77;;;;;;;18.99;68.63;97823.28;10295582;28;96548;-76
2023/10/19 16:34:51;;;;;;;;;;;;;;;18.75;67.29;97815.38;10295177;28;97663;-76
2023/10/19 16:39:54;;;;;;;7.43;2.13;;;;;;;18.62;68.74;97831.88;10295150;28;97207;-76
2023/10/19 16:44:59;;;;;;;7.55;2.10;;;;;;;18.42;68.90;97840.38;10295150;28;97047;-76
2023/10/19 16:50:07;;;;;;;10.13;2.53;;;;;;;18.31;68.65;97849.53;10295367;28;96627;-76
2023/10/19 16:55:11;;;;;;;7.30;1.90;;;;;;;18.24;69.88;97853.84;10294787;28;96715;-76
2023/10/19 17:00:19;;;;;;;8.35;2.35;;;;;;;18.10;69.47;97871.31;10294531;28;97148;-76
2023/10/19 17:05:25;;;;;;;8.73;2.30;;;;;;;18.16;70.33;97888.44;10300238;22;97965;-76
2023/10/19 17:10:28;;;;;;;6.88;2.03;;;;;;;18.12;70.58;97889.78;10296722;28;96756;-76
2023/10/19 17:15:33;;;;;;;7.57;1.95;;;;;;;18.06;70.87;97898.41;10293688;28;97553;-76
2023/10/19 17:20:36;;;;;;;6.78;1.65;;;;;;;18.01;71.53;97892.75;10293645;28;97077;-76
2023/10/19 17:25:40;;;;;;;7.72;1.85;;;;;;;17.89;72.34;97886.09;10293503;28;97050;-76
2023/10/19 17:30:46;;;;;;;5.93;2.30;;;;;;;17.80;72.37;97869.28;10294173;28;96960;-76
2023/10/19 17:35:50;;;;;;;5.28;1.70;;;;;;;17.68;73.16;97872.41;10293464;28;97200;-76
2023/10/19 17:40:53;;;;;;;3.10;1.73;;;;;;;17.60;73.62;97875.06;10298160;28;96965;-76
2023/10/19 17:46:19;;;;;;;8.70;1.60;;;;;;;17.64;73.76;97863.09;10905559;22;97924;-76
2023/10/19 17:51:40;;;;;;;9.57;1.95;;;;;;;17.59;73.73;97868.88;10193411;28;96747;-77
2023/10/19 17:56:52;;;;;;;8.15;1.50;;;;;;;17.55;74.88;97883.53;10177293;28;96887;-79
2023/10/19 18:02:06;;;;;;;4.47;1.42;;;;;;;17.21;77.96;97895.97;10178322;28;96342;-78
2023/10/19 18:07:19;;;;;;;5.80;1.60;;;;;;;17.03;78.12;97925.28;10177564;28;96912;-78
2023/10/19 18:12:25;;;;;;;3.33;1.20;;;;;;;17.02;78.73;97923.63;10177080;28;96589;-77
2023/10/19 18:17:30;;;;;;;2.75;0.93;;;;;;;16.96;79.13;97923.41;10175731;28;96893;-78
2023/10/19 18:22:43;;;;;;;;;;;;;;;;;;;;;
2023/10/19 18:27:49;;;;;;;3.38;1.05;;;;;;;16.97;79.87;97986.19;10177021;28;96530;-79
2023/10/19 18:32:58;;;;;;;3.67;0.70;;;;;;;16.68;78.51;97990.94;10180431;28;96512;-78
2023/10/19 18:38:06;;;;;;;3.10;0.40;;;;;;;16.54;78.60;97991.47;10183527;28;96589;-78
2023/10/19 18:43:15;;;;;;;1.10;0.35;;;;;;;16.51;78.78;98021.84;10183380;28;96521;-77
2023/10/19 18:48:26;;;;;;;0.85;0.47;;;;;;;16.53;78.62;98021.69;10183045;28;96632;-77
2023/10/19 18:53:38;;;;;;;1.13;0.50;;;;;;;16.45;78.99;98056.94;10183864;28;96605;-78
2023/10/19 18:58:47;;;;;;;1.42;0.30;;;;;;;16.36;78.81;98051.69;10182752;28;96473;-78
2023/10/19 19:03:52;;;;;;;1.85;0.50;;;;;;;16.35;79.27;98061.47;10182636;28;96617;-78
2023/10/19 19:09:03;;;;;;;5.75;0.75;;;;;;;16.30;79.73;98068.19;10181397;28;96609;-78
2023/10/19 19:14:15;;;;;;;2.70;0.50;;;;;;;16.30;79.59;98068.19;10182134;28;96452;-78
2023/10/19 19:19:27;;;;;;;1.92;0.45;;;;;;;16.30;80.54;98084.13;10182376;28;96547;-78
2023/10/19 19:24:38;;;;;;;3.22;0.40;;;;;;;16.24;80.70;98085.53;10181988;28;96614;-78
2023/10/19 19:29:52;;;;;;;2.13;0.68;;;;;;;16.25;80.91;98086.38;10181799;28;96393;-78
2023/10/19 19:35:01;;;;;;;3.47;1.15;;;;;;;16.25;80.83;98086.38;10181699;28;96568;-78
2023/10/19 19:40:22;;;;;;;1.13;0.47;;;;;;;16.22;81.10;98099.97;10181510;28;96614;-78
2023/10/19 19:45:59;;;;;;;;;;;;;;;;;;;;;
2023/10/19 19:51:14;;;;;;;1.38;0.40;;;;;;;16.17;81.34;98126.09;10181233;28;96560;-78
2023/10/19 19:56:27;;;;;;;3.40;0.85;;;;;;;16.23;80.71;98113.06;10180752;28;96589;-77
2023/10/19 20:01:32;;;;;;;2.20;0.60;;;;;;;16.16;81.20;98121.75;10179954;28;96517;-77
2023/10/19 20:06:56;;;;;;;3.55;0.80;;;;;;;16.17;81.53;98134.06;10180827;28;97157;-78
2023/10/19 20:12:15;;;;;;;;;;;;;;;;;;;;;
2023/10/19 20:17:25;;;;;;;1.52;0.30;;;;;;;16.17;81.31;98157.94;10179688;28;96574;-78
2023/10/19 20:22:34;;;;;;;1.77;0.70;;;;;;;16.18;81.36;98163.09;10180486;28;96573;-78
2023/10/19 20:27:51;;;;;;;2.42;0.65;;;;;;;16.06;81.52;98179.34;10178769;28;96759;-78
2023/10/19 20:32:57;;;;;;;4.35;0.93;;;;;;;16.05;81.85;98185.66;10179933;28;96529;-78
2023/10/19 20:38:20;;;;;;;;;;;;;;;;;;;;;
2023/10/19 20:43:40;;;;;;;;;;;;;;;;;;;;;
2023/10/19 20:48:47;;;;;;;3.25;0.90;;;;;;;16.07;81.88;98242.03;10179052;28;96462;-77
2023/10/19 20:54:11;;;;;;;4.15;0.63;;;;;;;16.02;81.18;98226.56;10177906;28;96531;-77
2023/10/19 20:59:17;;;;;;;1.63;0.93;;;;;;;16.06;81.41;98221.78;10178932;28;96403;-78
2023/10/19 21:04:26;;;;;;;1.38;0.57;;;;;;;15.97;80.97;98223.50;10179025;28;96496;-78
2023/10/19 21:09:35;;;;;;;2.70;0.68;;;;;;;15.99;80.90;98221.53;10178688;28;96674;-78
2023/10/19 21:14:38;;;;;;;2.25;0.70;;;;;;;16.02;81.11;98228.34;10178671;28;96853;-77
2023/10/19 21:19:43;;;;;;;5.43;0.73;;;;;;;15.94;80.51;98227.25;10178649;28;96591;-78
2023/10/19 21:24:48;;;;;;;;;;;;;;;15.89;80.56;98224.19;10178971;28;96395;-78
2023/10/19 21:29:52;;;;;;;5.22;0.70;;;;;;;15.96;80.67;98224.47;10179288;28;96658;-77
2023/10/19 21:34:59;;;;;;;4.43;1.05;;;;;;;15.94;81.13;98231.75;10178214;28;96423;-77
2023/10/19 21:40:10;;;;;;;5.45;1.05;;;;;;;15.91;80.49;98227.56;10177843;28;96745;-77
2023/10/19 21:45:18;;;;;;;4.63;0.93;;;;;;;15.96;80.67;98224.47;10176872;28;96829;-77
2023/10/19 21:50:25;;;;;;;3.45;1.15;;;;;;;15.98;80.11;98227.00;10177870;28;96566;-78
2023/10/19 21:55:40;;;;;;;4.43;0.93;;;;;;;15.94;80.38;98227.25;10177573;28;96596;-77
2023/10/19 22:00:59;;;;;;;6.30;1.33;;;;;;;15.94;79.64;98200.72;10177439;28;96539;-77
2023/10/19 22:06:13;;;;;;;5.80;1.02;;;;;;;16.00;79.80;98214.41;10178527;28;96538;-77
2023/10/19 22:11:30;;;;;;;5.63;1.27;;;;;;;16.03;80.05;98227.41;10184412;28;96460;-77
2023/10/19 22:16:36;;;;;;;4.72;0.85;;;;;;;16.05;79.82;98234.22;10183746;28;96571;-77
2023/10/19 22:21:44;;;;;;;7.55;1.52;;;;;;;16.04;78.74;98231.72;10184764;28;96576;-77
2023/10/19 22:26:55;;;;;;;6.72;0.88;;;;;;;16.06;79.22;98235.91;10183970;28;96677;-77
2023/10/19 22:31:58;;;;;;;2.92;0.93;;;;;;;16.17;78.61;98245.50;10183788;28;96582;-77
2023/10/19 22:37:03;;;;;;;4.03;1.17;;;;;;;16.19;78.30;98240.88;10182307;28;96591;-77
2023/10/19 22:42:07;;;;;;;5.03;1.25;;;;;;;16.13;79.44;98268.00;10183560;28;96489;-78
2023/10/19 22:47:11;;;;;;;4.25;0.85;;;;;;;15.90;80.81;98268.34;10182904;28;96677;-77
2023/10/19 22:52:15;;;;;;;1.73;0.60;;;;;;;15.83;82.13;98285.78;10183192;28;96560;-78
2023/10/19 22:57:19;;;;;;;4.72;1.23;;;;;;;15.83;81.89;98274.34;10182998;28;96493;-77
2023/10/19 23:02:22;;;;;;;3.80;1.02;;;;;;;15.75;82.97;98276.88;10182768;28;96516;-78
2023/10/19 23:07:29;;;;;;;2.13;0.75;;;;;;;15.71;83.09;98286.06;10182364;28;96598;-78
2023/10/19 23:12:34;;;;;;;3.60;0.60;;;;;;;15.78;82.20;98274.78;10183247;28;96629;-77
2023/10/19 23:17:42;;;;;;;2.60;0.68;;;;;;;15.60;81.69;98294.16;10181196;28;96592;-79
2023/10/19 23:22:45;;;;;;;5.13;0.80;;;;;;;15.45;83.38;98282.31;10182140;28;96511;-79
2023/10/19 23:27:50;;;;;;;3.60;0.57;;;;;;;15.39;83.12;98290.81;10181163;28;97368;-78
2023/10/19 23:32:54;;;;;;;1.65;0.47;;;;;;;15.42;83.02;98294.03;10181762;28;96589;-78
2023/10/19 23:37:57;;;;;;;4.10;0.80;;;;;;;15.41;83.36;98305.59;10181424;28;96540;-78
2023/10/19 23:43:02;;;;;;;2.72;0.43;;;;;;;15.32;83.07;98309.06;10181442;28;96518;-78
2023/10/19 23:48:10;;;;;;;3.47;1.05;;;;;;;15.24;83.50;98311.53;10181163;28;96537;-78
2023/10/19 23:53:20;;;;;;;1.15;0.40;;;;;;;15.26;83.05;98311.44;10181189;28;96523;-78
2023/10/19 23:58:25;;;;;;;1.77;0.32;;;;;;;15.23;82.82;98306.38;10180808;28;96542;-79
